»·PEaware :: SKW4544 KBOI-KSLC

SKW4544 :: KBOI-KSLC

FLIGHT INFORMATION

Flight Status: Arrived
Operator:
SkyWest Airlines
More flights by this operator :: More flights under this callsign
Pilot: Erik S. (3779)
Aircraft: BOEING 737-300
(B733)
More flights by this aircraft type
Origin: KBOI Boise Air Terminal/Gowen
United States
Destination: KSLC Salt Lake City Intl
United States
More flights between these airports :: More routes between these airports
Route: +BOI3 ROARR BYI SKEES5
File this flight plan on PilotEdge
Remarks:
Altitude:
(Current/Filed)
33,000ft
Speed:
(Current/Filed)
400kts
Departed: 06-Mar-18 11:50 AM
Arrived: 06-Mar-18 12:30 PM
Distance/Time
Traveled:
252nm/0:40
Distance/Time
To Go:
Arrived

Flight Plot

Page will automatically refresh every two minutes.

Flight plan parsing failed; only flown route is shown


Map Options




Map Legend


Flown Route
Filed Route
Departure Airport
Arrival Airport
Navaid (VOR, NDB)
Fix

Horizontal Profiles

Position Reports

Time Latitude Longitude Heading Altitude Ground
Speed
06-Mar-18 11:44 43.566819 -116.218478 318 2878ft 0kts
06-Mar-18 11:45 43.566819 -116.218478 318 2878ft 0kts
06-Mar-18 11:46 43.566819 -116.218478 318 2878ft 0kts
06-Mar-18 11:47 43.566819 -116.218478 318 2878ft 0kts
06-Mar-18 11:48 43.566819 -116.218478 318 2878ft 0kts
06-Mar-18 11:49 43.566819 -116.218478 318 2878ft 0kts
06-Mar-18 11:50 43.566521 -116.218098 304 2878ft 0kts
06-Mar-18 11:51 43.566616 -116.217619 216 2878ft 0kts
06-Mar-18 11:52 43.566615 -116.217620 215 2878ft 0kts
06-Mar-18 11:53 43.566566 -116.217669 213 2878ft 1kts
06-Mar-18 11:54 43.565225 -116.218722 293 2878ft 17kts
06-Mar-18 11:55 43.567684 -116.225837 295 2878ft 22kts
06-Mar-18 11:56 43.570485 -116.234083 294 2878ft 24kts
06-Mar-18 11:57 43.568461 -116.231965 114 2878ft 82kts
06-Mar-18 11:58 43.550346 -116.175698 116 5270ft 183kts
06-Mar-18 11:59 43.523917 -116.108279 118 7958ft 221kts
06-Mar-18 12:00 43.495739 -116.017666 115 10090ft 292kts
06-Mar-18 12:01 43.461285 -115.906706 114 12213ft 351kts
06-Mar-18 12:02 43.421879 -115.779300 115 14906ft 375kts
06-Mar-18 12:03 43.379318 -115.643820 115 17373ft 396kts
06-Mar-18 12:04 43.334352 -115.501482 116 19565ft 416kts
06-Mar-18 12:05 43.285658 -115.354029 125 21522ft 431kts
06-Mar-18 12:06 43.223655 -115.222178 126 23221ft 447kts
06-Mar-18 12:07 43.156169 -115.077316 126 25515ft 444kts
06-Mar-18 12:08 43.090738 -114.937183 126 27640ft 441kts
06-Mar-18 12:09 43.024798 -114.794908 126 29125ft 449kts
06-Mar-18 12:10 42.956665 -114.650140 126 30333ft 460kts
06-Mar-18 12:11 42.886726 -114.502424 126 31434ft 471kts
06-Mar-18 12:12 42.815176 -114.352024 126 32738ft 473kts
06-Mar-18 12:13 42.742939 -114.201049 126 33369ft 489kts
06-Mar-18 12:14 42.666433 -114.041917 126 33354ft 517kts
06-Mar-18 12:15 42.586666 -113.876713 127 33371ft 528kts
06-Mar-18 12:16 42.485733 -113.738318 141 33397ft 518kts
06-Mar-18 12:17 42.383758 -113.602321 141 33394ft 518kts
06-Mar-18 12:18 42.280933 -113.465596 141 33397ft 518kts
06-Mar-18 12:19 42.178092 -113.330132 141 33396ft 518kts
06-Mar-18 12:20 42.075356 -113.194758 141 33396ft 518kts
06-Mar-18 12:21 41.972575 -113.059974 140 32532ft 517kts
06-Mar-18 12:22 41.871612 -112.928168 140 28942ft 502kts
06-Mar-18 12:23 41.773153 -112.799088 139 25151ft 500kts
06-Mar-18 12:24 41.675693 -112.673540 139 21374ft 478kts
06-Mar-18 12:25 41.582160 -112.553943 138 17667ft 454kts
06-Mar-18 12:26 41.492215 -112.452531 148 15044ft 398kts
06-Mar-18 12:27 41.416859 -112.348905 133 13734ft 389kts
06-Mar-18 12:28 41.346844 -112.245494 132 13041ft 346kts
06-Mar-18 12:29 41.281555 -112.149964 133 12759ft 350kts
06-Mar-18 12:30 41.218145 -112.057763 132 11151ft 330kts
06-Mar-18 12:31 41.140456 -112.013044 181 11051ft 301kts
06-Mar-18 12:32 41.058143 -112.009942 177 10077ft 291kts
06-Mar-18 12:33 40.982281 -112.004630 176 8300ft 262kts
06-Mar-18 12:34 40.917115 -111.999496 169 6291ft 214kts
06-Mar-18 12:35 40.864331 -111.984351 164 5016ft 163kts
06-Mar-18 12:36 40.821729 -111.978660 172 4543ft 145kts
06-Mar-18 12:37 40.792360 -111.975359 191 4234ft 35kts
06-Mar-18 12:38 40.789759 -111.976831 204 4234ft 0kts
06-Mar-18 12:39 40.788850 -111.977972 252 4234ft 0kts
06-Mar-18 12:40 40.788850 -111.977972 252 4234ft 0kts

Navigation Log

Ident Type
Flight plan parsing failed, navigation log unavailable